AirNav   Air Wisconsin Up To $57,000 Bonus
 
 1279 users online  

T36 Paul Pittman Memorial Airport
Tylertown, Mississippi, USA

GOING TO TYLERTOWN?


FAA INFORMATION EFFECTIVE 16 JUNE 2022

Location

FAA Identifier: T36
Lat/Long: 31-08-45.6400N 090-10-05.3220W
31-08.760667N 090-10.088700W
31.1460111,-90.1681450
(estimated)
Elevation: 384 ft. / 117 m (estimated)
Variation: 03E (1985)
From city: 3 miles NW of TYLERTOWN, MS
Time zone: UTC -5 (UTC -6 during Standard Time)
Zip code: 39667

Airport Operations

Airport use: Open to the public
Activation date: 05/1961
Control tower: no
ARTCC: HOUSTON CENTER
FSS: GREENWOOD FLIGHT SERVICE STATION
NOTAMs facility: GWO (NOTAM-D service available)
Attendance: UNATNDD
Wind indicator: lighted
Segmented circle: yes
Lights: PAPIS OPERATE CONT.
Beacon: white-green (lighted land airport)
Operates sunset to sunrise.

Airport Communications

CTAF/UNICOM: 122.8
WX ASOS at MCB (16 nm W): 119.025 (601-249-3223)

Airport Services

Fuel available: 100LL
100LL:FUEL AVAILABLE 24 HRS WITH CREDIT CARD.
Parking: tiedowns
Bottled oxygen: NONE
Bulk oxygen: NONE

Runway Information

Runway 18/36

Dimensions: 3000 x 60 ft. / 914 x 18 m
Surface: asphalt, in excellent condition
Weight bearing capacity: 
Single wheel: 20.0
Runway edge lights: medium intensity
RUNWAY 18  RUNWAY 36
Traffic pattern: leftleft
Markings: basic, in good conditionbasic, in good condition
Visual slope indicator: 2-light PAPI on left (3.00 degrees glide path)2-light PAPI on left (3.00 degrees glide path)
Obstructions: 55 ft. trees, 1650 ft. from runway, 200 ft. right of centerline, 26:1 slope to clearnone

Airport Ownership and Management from official FAA records

Ownership: Publicly-owned
Owner: WALTHALL COUNTY
141 AIRPORT ROAD
TYLERTOWN, MS 39667
Phone 601-876-9327
MARY F GARNER, CHAIRPERSON AIRPORT BOARD; 601-876-5173.
Manager: MR. JEREMY HOLMES
141 AIRPORT ROAD
TYLERTOWN, MS 39667
Phone 601-303-1300
SECT. OF AIRPORT BOARD; 601-876-1095 (CELL).

Airport Operational Statistics

Aircraft based on the field: 13
Single engine airplanes: 13
    
Aircraft operations: avg 58/month *
57% transient general aviation
43% local general aviation
* for 12-month period ending 07 April 2022

Additional Remarks

PUBLIC TELEPHONE 601-876-9327.
COURTESY CAR AVAILABLE.
FOR CD CTC HOUSTON ARTCC AT 281-230-5622.

Instrument Procedures

There are no published instrument procedures at T36.

Some nearby airports with instrument procedures:

KMCB - Mc Comb (Pike County) Airport/John E Lewis Field (16 nm W)
0R0 - Columbia/Marion County Airport (20 nm NE)
KBXA - George R Carr Memorial Air Field (25 nm SE)
M43 - Prentiss-Jefferson Davis County Airport (30 nm NE)
1R7 - Brookhaven-Lincoln County Airport (30 nm NW)
 
Loc | Ops | Rwys | IFR | FBO | Links
Com | Nav | Svcs | Stats | Notes
Area around T36 (Paul Pittman Memorial Airport)
 
Road maps at: MapQuest Bing Google
 
Aerial photo
WARNING: Photo may not be current or correct
Aerial photo of T36 (Paul Pittman Memorial Airport)
Do you have a better or more recent aerial photo of Paul Pittman Memorial Airport that you would like to share? If so, please send us your photo.

 
Sectional chart

 
Airport distance calculator
Flying to Paul Pittman Memorial Airport? Find the distance to fly.

From to T36

Sunrise and sunset
Times for 28-Jun-2022
 Local
(UTC-5)
 Zulu
(UTC)
Morning civil twilight05:3210:32
Sunrise06:0011:00
Sunset20:0801:08
Evening civil twilight20:3501:35

Current date and time
Zulu (UTC)  28-Jun-2022 22:27:43
Local (UTC-5)  28-Jun-2022 17:27:43
 
METAR
KMCB 
15nm W 
282153Z AUTO 36007KT 10SM CLR 28/22 A3005 RMK AO2 LTG DSNT ALQDS SLP169 T02830217
K0R0 
20nm NE 
282215Z AUTO VRB05G12KT 10SM CLR 33/22 A3005 RMK AO2 LTG DSNT SE-SW
KBXA 
25nm SE 
282215Z AUTO 00000KT 10SM SCT046 SCT050 BKN060 26/23 A3005 RMK AO2 T02620230
K1R7 
30nm NW 
282215Z AUTO 00000KT 10SM CLR 24/24 A3008 RMK AO2 PWINO
TAF
KMCB 
15nm W 
281720Z 2818/2918 03006KT P6SM VCTS BKN060CB FM282300 04007KT P6SM VCTS OVC100CB FM290100 VRB04KT P6SM BKN110 FM291000 VRB03KT 5SM BR BKN250 FM291300 08005KT P6SM BKN250
NOTAMs
Click for the latest NOTAMs
NOTAMs are issued by the DoD/FAA and will open in a separate window not controlled by AirNav.

 

 
 

FBO, Fuel Providers, and Aircraft Ground Support

  
 Business Name 
 
 Contact 
 
 Services / Description 
 
Fuel Prices
 
Comments
  
Walthall Co. Airport 601-876-4500
no information available

If you are affiliated with Walthall Co. Airport and would like to show here your services, contact info, web link, logo, and more, click here
100LL
SS $4.09 
 Updated 08-Oct-2021
 
   write
SS=Self service
Update Fuel Prices
 

Would you like to see your business listed on this page?

 If your business provides an interesting product or service to pilots, flight crews, aircraft, or users of the Paul Pittman Memorial Airport, you should consider listing it here.  To start the listing process, click on the button below
 
Add a business
 

Other Pages about Paul Pittman Memorial Airport

Update a link
 
Copyright © AirNav, LLC. All rights reserved. Privacy Policy  Contact